1856 Hurricane NOT_NAMED (1856224N14330)


IBTrACS version v04r00. Visit IBTrACS website for data access.
Please direct all questions to the IBTrACS Q and A forum

Storm track - Intensity - Wind Radii - Intensity Data - Source Data - All data

Summary Information

Storm ID 1856224N14330
Start Aug 11 00Z
Max Intensity 90 kt (Aug 19 12Z)
End Aug 23 12Z
ATCF IDs
Track status Best track data.

Storm track plot

Map of storm track

Intensity plots

Map of storm track

Radial wind information

No radial wind information for this storm


Position and Intensity Table

BASIN ISO_TIME_________ NATURE LAT LON MLC WIND
degrees north degrees east kts
NA 1856-08-11 00:00:00 TS 14.00 -30.00 30
NA 03:00:00 TS 14.16 -30.80 30
NA 06:00:00 TS 14.30 -31.60 30
NA 09:00:00 TS 14.40 -32.40 30
NA 12:00:00 TS 14.50 -33.20 30
NA 15:00:00 TS 14.65 -34.00 30
NA 18:00:00 TS 14.80 -34.80 30
NA 21:00:00 TS 14.90 -35.60 30
NA 1856-08-12 00:00:00 TS 15.00 -36.40 30
NA 03:00:00 TS 15.15 -37.20 30
NA 06:00:00 TS 15.30 -38.00 30
NA 09:00:00 TS 15.40 -38.80 30
NA 12:00:00 TS 15.50 -39.60 30
NA 15:00:00 TS 15.65 -40.41 30
NA 18:00:00 TS 15.80 -41.20 30
NA 21:00:00 TS 15.92 -42.00 30
NA 1856-08-13 00:00:00 TS 16.00 -42.70 30
NA 03:00:00 TS 16.06 -43.20 32
NA 06:00:00 TS 16.10 -43.60 35
NA 09:00:00 TS 16.15 -44.05 37
NA 12:00:00 TS 16.20 -44.50 40
NA 15:00:00 TS 16.26 -44.95 45
NA 18:00:00 TS 16.30 -45.40 50
NA 21:00:00 TS 16.30 -45.85 52
NA 1856-08-14 00:00:00 TS 16.30 -46.30 55
NA 03:00:00 TS 16.35 -46.75 57
NA 06:00:00 TS 16.40 -47.20 60
NA 09:00:00 TS 16.41 -47.65 60
NA 12:00:00 TS 16.40 -48.10 60
NA 15:00:00 TS 16.39 -48.54 62
NA 18:00:00 TS 16.40 -49.00 65
NA 21:00:00 TS 16.45 -49.50 65
NA 1856-08-15 00:00:00 TS 16.50 -50.00 65
NA 03:00:00 TS 16.51 -50.46 65
NA 06:00:00 TS 16.50 -50.90 65
NA 09:00:00 TS 16.49 -51.34 67
NA 12:00:00 TS 16.50 -51.80 70
NA 15:00:00 TS 16.55 -52.30 70
NA 18:00:00 TS 16.60 -52.80 70
NA 21:00:00 TS 16.61 -53.26 70
NA 1856-08-16 00:00:00 TS 16.60 -53.70 70
NA 03:00:00 TS 16.59 -54.15 70
NA 06:00:00 TS 16.60 -54.60 70
NA 09:00:00 TS 16.65 -55.04 72
NA 12:00:00 TS 16.70 -55.50 75
NA 15:00:00 TS 16.69 -56.00 75
NA 18:00:00 TS 16.70 -56.50 75
NA 21:00:00 TS 16.78 -56.96 75
NA 1856-08-17 00:00:00 TS 16.90 -57.40 75
NA 03:00:00 TS 17.04 -57.84 75
NA 06:00:00 TS 17.20 -58.30 75
NA 09:00:00 TS 17.33 -58.79 77
NA 12:00:00 TS 17.50 -59.30 80
NA 15:00:00 TS 17.78 -59.85 80
NA 18:00:00 TS 18.10 -60.40 80
NA 21:00:00 TS 18.40 -60.90 80
NA 1856-08-18 00:00:00 TS 18.70 -61.40 80
NA 03:00:00 TS 19.01 -61.96 80
NA 06:00:00 TS 19.30 -62.50 80
NA 09:00:00 TS 19.52 -62.95 82
NA 12:00:00 TS 19.80 -63.40 85
NA 15:00:00 TS 20.26 -63.94 85
NA 18:00:00 TS 20.80 -64.50 85
NA 21:00:00 TS 21.34 -65.01 85
NA 1856-08-19 00:00:00 TS 21.90 -65.50 85
NA 03:00:00 TS 22.44 -66.00 85
NA 06:00:00 TS 23.00 -66.50 85
NA 09:00:00 TS 23.58 -67.09 87
NA 12:00:00 TS 24.20 -67.50 90
NA 15:00:00 TS 24.88 -67.48 90
NA 18:00:00 TS 25.60 -67.30 90
NA 21:00:00 TS 26.30 -67.25 87
NA 1856-08-20 00:00:00 TS 27.00 -67.20 85
NA 03:00:00 TS 27.71 -67.11 85
NA 06:00:00 TS 28.40 -67.00 85
NA 09:00:00 TS 29.07 -66.91 85
NA 12:00:00 TS 29.70 -66.80 85
NA 15:00:00 TS 30.27 -66.61 85
NA 18:00:00 TS 30.80 -66.40 85
NA 21:00:00 TS 31.35 -66.27 82
NA 1856-08-21 00:00:00 TS 31.90 -66.00 80
NA 03:00:00 TS 32.46 -65.41 80
NA 06:00:00 TS 33.00 -64.70 80
NA 09:00:00 TS 33.45 -64.13 80
NA 12:00:00 TS 34.00 -63.50 80
NA 15:00:00 TS 34.80 -62.77 80
NA 18:00:00 TS 35.70 -61.80 80
NA 21:00:00 TS 36.52 -60.37 80
NA 1856-08-22 00:00:00 TS 37.30 -59.00 80
NA 03:00:00 TS 38.04 -58.27 80
NA 06:00:00 TS 38.80 -57.80 80
NA 09:00:00 TS 39.62 -57.21 77
NA 12:00:00 TS 40.50 -56.60 75
NA 15:00:00 TS 41.44 -55.96 72
NA 18:00:00 TS 42.40 -55.20 70
NA 21:00:00 TS 43.31 -54.17 67
NA 1856-08-23 00:00:00 TS 44.20 -53.10 65
NA 03:00:00 TS 45.10 -52.22 62
NA 06:00:00 ET 46.00 -51.40 60
NA 09:00:00 ET 46.90 -50.53 55
NA 12:00:00 ET 47.80 -49.60 50

Source Information

Agency Information
USA
TOKYO
CMA
HKO
NEWDELHI
REUNION
BOM
NADI
WELLINGTON
DS824
TD9636
TD9635
NEUMANN
MLC

All available IBTrACS Data

SEASON BASIN SUBBASIN ISO_TIME_________ NATURE LAT LON DIST2LAND LANDFALL IFLAG USA SSHS MLC LAT MLC LON MLC CLASS MLC WIND STORM SPEED STORM DIR
Year degrees north degrees east km km 1 degrees north degrees east kts kts degrees
1856 NA NA 1856-08-11 00:00:00 TS 14.00 -30.00 1349 1349 _____________O -1 14.00 -30.00 TD 30 16 282
1856 NA NA 03:00:00 TS 14.16 -30.80 1433 1433 _____________P -1 14.16 -30.80 TD 30 16 281
1856 NA NA 06:00:00 TS 14.30 -31.60 1519 1519 _____________O -1 14.30 -31.60 TD 30 16 279
1856 NA NA 09:00:00 TS 14.40 -32.40 1604 1604 _____________P -1 14.40 -32.40 TD 30 16 277
1856 NA NA 12:00:00 TS 14.50 -33.20 1689 1689 _____________O -1 14.50 -33.20 TD 30 16 279
1856 NA NA 15:00:00 TS 14.65 -34.00 1775 1775 _____________P -1 14.65 -34.00 TD 30 16 281
1856 NA NA 18:00:00 TS 14.80 -34.80 1860 1860 _____________O -1 14.80 -34.80 TD 30 16 279
1856 NA NA 21:00:00 TS 14.90 -35.60 1946 1946 _____________P -1 14.90 -35.60 TD 30 16 277
1856 NA NA 1856-08-12 00:00:00 TS 15.00 -36.40 2024 1961 _____________O -1 15.00 -36.40 TD 30 16 279
1856 NA NA 03:00:00 TS 15.15 -37.20 1961 1907 _____________P -1 15.15 -37.20 TD 30 16 281
1856 NA NA 06:00:00 TS 15.30 -38.00 1907 1848 _____________O -1 15.30 -38.00 TD 30 16 279
1856 NA NA 09:00:00 TS 15.40 -38.80 1848 1792 _____________P -1 15.40 -38.80 TD 30 16 277
1856 NA NA 12:00:00 TS 15.50 -39.60 1792 1738 _____________O -1 15.50 -39.60 TD 30 16 279
1856 NA NA 15:00:00 TS 15.65 -40.41 1738 1696 _____________P -1 15.65 -40.41 TD 30 16 281
1856 NA NA 18:00:00 TS 15.80 -41.20 1696 1649 _____________O -1 15.80 -41.20 TD 30 16 280
1856 NA NA 21:00:00 TS 15.92 -42.00 1649 1612 _____________P -1 15.92 -42.00 TD 30 15 278
1856 NA NA 1856-08-13 00:00:00 TS 16.00 -42.70 1612 1587 _____________O -1 16.00 -42.70 TD 30 12 277
1856 NA NA 03:00:00 TS 16.06 -43.20 1590 1566 _____________P -1 16.06 -43.20 TD 32 9 277
1856 NA NA 06:00:00 TS 16.10 -43.60 1566 1540 _____________O -1 16.10 -43.60 TS 35 8 276
1856 NA NA 09:00:00 TS 16.15 -44.05 1533 1516 _____________P -1 16.15 -44.05 TS 37 9 277
1856 NA NA 12:00:00 TS 16.20 -44.50 1516 1491 _____________O -1 16.20 -44.50 TS 40 9 277
1856 NA NA 15:00:00 TS 16.26 -44.95 1500 1470 _____________P -1 16.26 -44.95 TS 45 9 277
1856 NA NA 18:00:00 TS 16.30 -45.40 1470 1447 _____________O -1 16.30 -45.40 TS 50 9 273
1856 NA NA 21:00:00 TS 16.30 -45.85 1442 1420 _____________P -1 16.30 -45.85 TS 52 9 270
1856 NA NA 1856-08-14 00:00:00 TS 16.30 -46.30 1420 1400 _____________O -1 16.30 -46.30 TS 55 9 273
1856 NA NA 03:00:00 TS 16.35 -46.75 1400 1385 _____________P -1 16.35 -46.75 TS 57 9 277
1856 NA NA 06:00:00 TS 16.40 -47.20 1385 1366 _____________O -1 16.40 -47.20 TS 60 9 274
1856 NA NA 09:00:00 TS 16.41 -47.65 1361 1344 _____________P -1 16.41 -47.65 TS 60 9 270
1856 NA NA 12:00:00 TS 16.40 -48.10 1344 1328 _____________O -1 16.40 -48.10 TS 60 9 269
1856 NA NA 15:00:00 TS 16.39 -48.54 1328 1305 _____________P -1 16.39 -48.54 TS 62 9 270
1856 NA NA 18:00:00 TS 16.40 -49.00 1305 1282 _____________O -1 16.40 -49.00 HU 65 9 274
1856 NA NA 21:00:00 TS 16.45 -49.50 1282 1272 _____________P -1 16.45 -49.50 HU 65 10 276
1856 NA NA 1856-08-15 00:00:00 TS 16.50 -50.00 1272 1257 _____________O -1 16.50 -50.00 HU 65 9 274
1856 NA NA 03:00:00 TS 16.51 -50.46 1253 1240 _____________P -1 16.51 -50.46 HU 65 9 270
1856 NA NA 06:00:00 TS 16.50 -50.90 1240 1228 _____________O -1 16.50 -50.90 HU 65 8 269
1856 NA NA 09:00:00 TS 16.49 -51.34 1228 1187 _____________P -1 16.49 -51.34 HU 67 9 270
1856 NA NA 12:00:00 TS 16.50 -51.80 1187 1142 _____________O -1 16.50 -51.80 HU 70 9 274
1856 NA NA 15:00:00 TS 16.55 -52.30 1142 1105 _____________P -1 16.55 -52.30 HU 70 10 276
1856 NA NA 18:00:00 TS 16.60 -52.80 1105 1070 _____________O -1 16.60 -52.80 HU 70 9 274
1856 NA NA 21:00:00 TS 16.61 -53.26 1062 1028 _____________P -1 16.61 -53.26 HU 70 9 270
1856 NA NA 1856-08-16 00:00:00 TS 16.60 -53.70 1028 996 _____________O -1 16.60 -53.70 HU 70 9 269
1856 NA NA 03:00:00 TS 16.59 -54.15 988 956 _____________P -1 16.59 -54.15 HU 70 9 270
1856 NA NA 06:00:00 TS 16.60 -54.60 956 925 _____________O -1 16.60 -54.60 HU 70 9 274
1856 NA NA 09:00:00 TS 16.65 -55.04 925 896 _____________P -1 16.65 -55.04 HU 72 9 277
1856 NA NA 12:00:00 TS 16.70 -55.50 896 861 _____________O -1 16.70 -55.50 HU 75 9 273
1856 NA NA 15:00:00 TS 16.69 -56.00 861 829 _____________P -1 16.69 -56.00 HU 75 10 270
1856 NA NA 18:00:00 TS 16.70 -56.50 829 810 _____________O -1 16.70 -56.50 HU 75 9 275
1856 NA NA 21:00:00 TS 16.78 -56.96 808 795 _____________P -1 16.78 -56.96 HU 75 9 283
1856 NA NA 1856-08-17 00:00:00 TS 16.90 -57.40 795 785 _____________O -1 16.90 -57.40 HU 75 9 287
1856 NA NA 03:00:00 TS 17.04 -57.84 785 781 _____________P -1 17.04 -57.84 HU 75 9 289
1856 NA NA 06:00:00 TS 17.20 -58.30 781 727 _____________O -1 17.20 -58.30 HU 75 9 288
1856 NA NA 09:00:00 TS 17.33 -58.79 727 671 _____________P -1 17.33 -58.79 HU 77 10 287
1856 NA NA 12:00:00 TS 17.50 -59.30 671 615 _____________O -1 17.50 -59.30 HU 80 11 294
1856 NA NA 15:00:00 TS 17.78 -59.85 615 549 _____________P -1 17.78 -59.85 HU 80 12 300
1856 NA NA 18:00:00 TS 18.10 -60.40 549 495 _____________O -1 18.10 -60.40 HU 80 12 302
1856 NA NA 21:00:00 TS 18.40 -60.90 495 444 _____________P -1 18.40 -60.90 HU 80 11 302
1856 NA NA 1856-08-18 00:00:00 TS 18.70 -61.40 444 395 _____________O -1 18.70 -61.40 HU 80 12 301
1856 NA NA 03:00:00 TS 19.01 -61.96 385 341 _____________P -1 19.01 -61.96 HU 80 12 300
1856 NA NA 06:00:00 TS 19.30 -62.50 341 309 _____________O -1 19.30 -62.50 HU 80 11 299
1856 NA NA 09:00:00 TS 19.52 -62.95 299 279 _____________P -1 19.52 -62.95 HU 82 10 300
1856 NA NA 12:00:00 TS 19.80 -63.40 279 268 _____________O -1 19.80 -63.40 HU 85 12 308
1856 NA NA 15:00:00 TS 20.26 -63.94 277 270 _____________P -1 20.26 -63.94 HU 85 14 314
1856 NA NA 18:00:00 TS 20.80 -64.50 292 292 _____________O -1 20.80 -64.50 HU 85 15 318
1856 NA NA 21:00:00 TS 21.34 -65.01 330 330 _____________P -1 21.34 -65.01 HU 85 14 320
1856 NA NA 1856-08-19 00:00:00 TS 21.90 -65.50 391 391 _____________O -1 21.90 -65.50 HU 85 14 320
1856 NA NA 03:00:00 TS 22.44 -66.00 447 447 _____________P -1 22.44 -66.00 HU 85 14 320
1856 NA NA 06:00:00 TS 23.00 -66.50 505 505 _____________O -1 23.00 -66.50 HU 85 15 319
1856 NA NA 09:00:00 TS 23.58 -67.09 531 531 _____________P -1 23.58 -67.09 HU 87 15 323
1856 NA NA 12:00:00 TS 24.20 -67.50 575 575 _____________O -1 24.20 -67.50 HU 90 14 345
1856 NA NA 15:00:00 TS 24.88 -67.48 645 645 _____________P -1 24.88 -67.48 HU 90 14 7
1856 NA NA 18:00:00 TS 25.60 -67.30 725 725 _____________O -1 25.60 -67.30 HU 90 14 8
1856 NA NA 21:00:00 TS 26.30 -67.25 801 801 _____________P -1 26.30 -67.25 HU 87 14 4
1856 NA NA 1856-08-20 00:00:00 TS 27.00 -67.20 875 875 _____________O -1 27.00 -67.20 HU 85 14 5
1856 NA NA 03:00:00 TS 27.71 -67.11 939 939 _____________P -1 27.71 -67.11 HU 85 14 7
1856 NA NA 06:00:00 TS 28.40 -67.00 1006 1006 _____________O -1 28.40 -67.00 HU 85 14 7
1856 NA NA 09:00:00 TS 29.07 -66.91 1074 1058 _____________P -1 29.07 -66.91 HU 85 13 8
1856 NA NA 12:00:00 TS 29.70 -66.80 1058 1036 _____________O -1 29.70 -66.80 HU 85 12 12
1856 NA NA 15:00:00 TS 30.27 -66.61 1029 1009 _____________P -1 30.27 -66.61 HU 85 12 17
1856 NA NA 18:00:00 TS 30.80 -66.40 1010 987 _____________O -1 30.80 -66.40 HU 85 11 15
1856 NA NA 21:00:00 TS 31.35 -66.27 987 971 _____________P -1 31.35 -66.27 HU 82 12 17
1856 NA NA 1856-08-21 00:00:00 TS 31.90 -66.00 976 971 _____________O -1 31.90 -66.00 HU 80 13 33
1856 NA NA 03:00:00 TS 32.46 -65.41 997 997 _____________P -1 32.46 -65.41 HU 80 16 45
1856 NA NA 06:00:00 TS 33.00 -64.70 1036 1036 _____________O -1 33.00 -64.70 HU 80 15 47
1856 NA NA 09:00:00 TS 33.45 -64.13 1049 1028 _____________P -1 33.45 -64.13 HU 80 14 45
1856 NA NA 12:00:00 TS 34.00 -63.50 1028 990 _____________O -1 34.00 -63.50 HU 80 18 40
1856 NA NA 15:00:00 TS 34.80 -62.77 990 915 _____________P -1 34.80 -62.77 HU 80 22 39
1856 NA NA 18:00:00 TS 35.70 -61.80 917 882 _____________O -1 35.70 -61.80 HU 80 26 49
1856 NA NA 21:00:00 TS 36.52 -60.37 882 865 _____________P -1 36.52 -60.37 HU 80 28 55
1856 NA NA 1856-08-22 00:00:00 TS 37.30 -59.00 870 832 _____________O -1 37.30 -59.00 HU 80 23 48
1856 NA NA 03:00:00 TS 38.04 -58.27 832 761 _____________P -1 38.04 -58.27 HU 80 18 32
1856 NA NA 06:00:00 TS 38.80 -57.80 761 699 _____________O -1 38.80 -57.80 HU 80 18 28
1856 NA NA 09:00:00 TS 39.62 -57.21 699 642 _____________P -1 39.62 -57.21 HU 77 19 29
1856 NA NA 12:00:00 TS 40.50 -56.60 637 585 _____________O -1 40.50 -56.60 HU 75 21 28
1856 NA NA 15:00:00 TS 41.44 -55.96 585 494 _____________P -1 41.44 -55.96 HU 72 22 29
1856 NA NA 18:00:00 TS 42.40 -55.20 483 369 _____________O -1 42.40 -55.20 HU 70 23 35
1856 NA NA 21:00:00 TS 43.31 -54.17 369 266 _____________P -1 43.31 -54.17 HU 67 24 40
1856 NA NA 1856-08-23 00:00:00 TS 44.20 -53.10 266 190 _____________O -1 44.20 -53.10 HU 65 23 38
1856 NA NA 03:00:00 TS 45.10 -52.22 183 151 _____________P -1 45.10 -52.22 HU 62 22 34
1856 NA NA 06:00:00 ET 46.00 -51.40 151 144 _____________O -1 46.00 -51.40 EX 60 22 33
1856 NA NA 09:00:00 ET 46.90 -50.53 171 167 _____________P -1 46.90 -50.53 EX 55 22 34
1856 NA NA 12:00:00 ET 47.80 -49.60 226 _____________O -1 47.80 -49.60 EX 50 22 35